Time;durP1;ratioP1;P1;durP2;ratioP2;P2;SDS_P1;SDS_P2;PMS_P1;PMS_P2;Temp;Humidity;BMP_temperature;BMP_pressure;BME280_temperature;BME280_humidity;BME280_pressure;Samples;Min_cycle;Max_cycle;Signal;HPM_P1;HPM_P2
2023/02/18 00:00:14;;;;;;;5.07;0.60;;;;;;;;;;5012545;28;20044;-63
2023/02/18 00:02:41;;;;;;;0.80;0.40;;;;;;;;;;5013532;28;20256;-61
2023/02/18 00:05:07;;;;;;;4.10;0.70;;;;;;;;;;5005189;28;20037;-64
2023/02/18 00:07:38;;;;;;;2.33;0.47;;;;;;;;;;5005899;28;20865;-61
2023/02/18 00:10:05;;;;;;;1.55;0.60;;;;;;;;;;5005000;28;20056;-60
2023/02/18 00:12:32;;;;;;;2.35;0.50;;;;;;;;;;5006799;28;20041;-62
2023/02/18 00:14:59;;;;;;;2.70;0.50;;;;;;;;;;5006621;28;20436;-64
2023/02/18 00:17:25;;;;;;;3.25;1.02;;;;;;;;;;5004082;28;20045;-63
2023/02/18 00:19:52;;;;;;;3.65;0.95;;;;;;;;;;5005380;28;20057;-62
2023/02/18 00:22:19;;;;;;;5.63;1.85;;;;;;;;;;5005467;28;20051;-63
2023/02/18 00:24:45;;;;;;;5.72;2.10;;;;;;;;;;5005784;28;21712;-63
2023/02/18 00:27:12;;;;;;;10.98;3.28;;;;;;;;;;5001990;28;20038;-64
2023/02/18 00:29:38;;;;;;;16.70;5.30;;;;;;;;;;5005828;28;20053;-62
2023/02/18 00:32:05;;;;;;;4.82;1.77;;;;;;;;;;5005638;28;20086;-62
2023/02/18 00:34:32;;;;;;;8.27;2.15;;;;;;;;;;5006863;28;20061;-62
2023/02/18 00:36:58;;;;;;;7.97;2.03;;;;;;;;;;5004748;28;20042;-64
2023/02/18 00:39:25;;;;;;;2.80;0.70;;;;;;;;;;5005452;28;20038;-62
2023/02/18 00:41:52;;;;;;;7.70;3.30;;;;;;;;;;5005800;28;20041;-63
2023/02/18 00:44:18;;;;;;;4.55;1.70;;;;;;;;;;5006570;28;20156;-63
2023/02/18 00:46:47;;;;;;;2.83;0.90;;;;;;;;;;5004674;28;20095;-63
2023/02/18 00:49:13;;;;;;;8.25;3.53;;;;;;;;;;5006726;28;20045;-63
2023/02/18 00:51:40;;;;;;;3.22;1.00;;;;;;;;;;5005567;28;20038;-62
2023/02/18 00:54:07;;;;;;;7.30;2.30;;;;;;;;;;5006370;28;20061;-61
2023/02/18 00:56:33;;;;;;;4.25;1.30;;;;;;;;;;4996491;28;20038;-63
2023/02/18 00:59:00;;;;;;;3.33;1.00;;;;;;;;;;5019453;28;20135;-63
2023/02/18 01:01:27;;;;;;;3.53;0.85;;;;;;;;;;5005981;28;20079;-63
2023/02/18 01:03:53;;;;;;;2.95;0.77;;;;;;;;;;5006249;28;20044;-63
2023/02/18 01:06:21;;;;;;;2.80;0.80;;;;;;;;;;5004522;28;20034;-62
2023/02/18 01:08:48;;;;;;;1.85;0.50;;;;;;;;;;5004975;28;20121;-62
2023/02/18 01:11:15;;;;;;;3.65;0.73;;;;;;;;;;5006882;28;20743;-62
2023/02/18 01:13:41;;;;;;;7.35;0.65;;;;;;;;;;5004490;28;20653;-63
2023/02/18 01:16:08;;;;;;;3.03;0.50;;;;;;;;;;5006102;28;20084;-63
2023/02/18 01:18:35;;;;;;;5.30;0.75;;;;;;;;;;5007126;28;21492;-62
2023/02/18 01:21:04;;;;;;;2.75;0.77;;;;;;;;;;5016858;28;20029;-62
2023/02/18 01:23:30;;;;;;;2.03;0.60;;;;;;;;;;5008061;28;20121;-63
2023/02/18 01:25:58;;;;;;;2.85;0.80;;;;;;;;;;5007203;28;20038;-63
2023/02/18 01:28:24;;;;;;;5.82;0.90;;;;;;;;;;5003847;28;20056;-61
2023/02/18 01:30:51;;;;;;;3.47;0.70;;;;;;;;;;5004376;28;20045;-63
2023/02/18 01:33:19;;;;;;;2.17;0.60;;;;;;;;;;5005786;28;20498;-63
2023/02/18 01:35:46;;;;;;;6.32;0.65;;;;;;;;;;5004495;28;20053;-63
2023/02/18 01:38:12;;;;;;;6.40;0.82;;;;;;;;;;4984685;28;20041;-64
2023/02/18 01:40:45;;;;;;;3.80;0.80;;;;;;;;;;5004442;28;20025;-63
2023/02/18 01:43:12;;;;;;;3.25;0.70;;;;;;;;;;5006849;28;20077;-63
2023/02/18 01:45:42;;;;;;;1.90;0.52;;;;;;;;;;5005227;28;20057;-64
2023/02/18 01:48:15;;;;;;;1.38;0.50;;;;;;;;;;5005150;28;20053;-62
2023/02/18 01:50:50;;;;;;;1.42;0.50;;;;;;;;;;5008040;28;20577;-64
2023/02/18 01:53:18;;;;;;;1.77;0.50;;;;;;;;;;5008993;28;21908;-64
2023/02/18 01:55:46;;;;;;;1.55;0.60;;;;;;;;;;5008278;28;20340;-61
2023/02/18 01:58:13;;;;;;;2.65;0.60;;;;;;;;;;5008018;28;20033;-63
2023/02/18 02:00:40;;;;;;;8.18;0.70;;;;;;;;;;5008051;28;20041;-63
2023/02/18 02:03:07;;;;;;;3.45;0.52;;;;;;;;;;5008492;28;20042;-64
2023/02/18 02:05:34;;;;;;;6.45;0.50;;;;;;;;;;5007754;28;20044;-63
2023/02/18 02:08:01;;;;;;;2.53;0.68;;;;;;;;;;5008614;28;20034;-63
2023/02/18 02:10:40;;;;;;;1.25;0.50;;;;;;;;;;5007611;28;20121;-65
2023/02/18 02:13:13;;;;;;;1.92;0.63;;;;;;;;;;5008545;28;20056;-63
2023/02/18 02:15:56;;;;;;;2.53;0.70;;;;;;;;;;5009952;28;20046;-65
2023/02/18 02:18:44;;;;;;;1.33;0.47;;;;;;;;;;5008227;28;20073;-63
2023/02/18 02:21:14;;;;;;;1.77;0.55;;;;;;;;;;5008592;28;20333;-67
2023/02/18 02:23:49;;;;;;;3.35;0.80;;;;;;;;;;5008694;28;20046;-65
2023/02/18 02:26:16;;;;;;;3.85;0.60;;;;;;;;;;5008681;28;20368;-65
2023/02/18 02:28:43;;;;;;;1.80;0.50;;;;;;;;;;5009302;28;20045;-65
2023/02/18 02:31:28;;;;;;;4.78;0.80;;;;;;;;;;5012790;28;20038;-64
2023/02/18 02:34:13;;;;;;;4.03;0.73;;;;;;;;;;5020066;28;20045;-64
2023/02/18 02:36:49;;;;;;;3.78;0.68;;;;;;;;;;5010817;28;20075;-65
2023/02/18 02:39:19;;;;;;;3.25;0.80;;;;;;;;;;5016435;28;20146;-66
2023/02/18 02:41:46;;;;;;;3.28;0.60;;;;;;;;;;5006562;28;20034;-64
2023/02/18 02:44:25;;;;;;;5.43;0.80;;;;;;;;;;5007223;28;20466;-65
2023/02/18 02:46:53;;;;;;;3.22;0.60;;;;;;;;;;5007182;28;20049;-65
2023/02/18 02:49:26;;;;;;;2.10;0.70;;;;;;;;;;5005687;28;20053;-64
2023/02/18 02:52:03;;;;;;;2.13;0.57;;;;;;;;;;5010541;28;20262;-64
2023/02/18 02:54:29;;;;;;;2.13;0.80;;;;;;;;;;4996573;28;20444;-63
2023/02/18 02:57:08;;;;;;;2.80;0.88;;;;;;;;;;5021420;28;20091;-63
2023/02/18 02:59:37;;;;;;;6.03;0.82;;;;;;;;;;5005175;28;20037;-65
2023/02/18 03:02:27;;;;;;;4.35;0.80;;;;;;;;;;5004793;28;20038;-64
2023/02/18 03:05:12;;;;;;;3.30;0.90;;;;;;;;;;5011910;28;20114;-66
2023/02/18 03:07:57;;;;;;;2.97;0.70;;;;;;;;;;5007722;28;20038;-61
2023/02/18 03:10:36;;;;;;;2.13;0.75;;;;;;;;;;5006719;28;20123;-64
2023/02/18 03:13:05;;;;;;;3.80;0.80;;;;;;;;;;5006043;28;20574;-65
2023/02/18 03:15:32;;;;;;;3.35;0.70;;;;;;;;;;5006825;28;20042;-65
2023/02/18 03:18:02;;;;;;;3.03;0.65;;;;;;;;;;5005944;28;20048;-65
2023/02/18 03:20:35;;;;;;;4.13;0.70;;;;;;;;;;5005597;28;20042;-65
2023/02/18 03:23:04;;;;;;;2.97;0.90;;;;;;;;;;4998360;28;20086;-65
2023/02/18 03:25:32;;;;;;;3.30;0.70;;;;;;;;;;5007280;28;20561;-66
2023/02/18 03:28:30;;;;;;;3.83;0.73;;;;;;;;;;5006215;28;20133;-68
2023/02/18 03:31:02;;;;;;;1.95;0.60;;;;;;;;;;4996504;28;20053;-66
2023/02/18 03:33:32;;;;;;;1.65;0.50;;;;;;;;;;5007062;28;20084;-67
2023/02/18 03:35:59;;;;;;;5.45;0.77;;;;;;;;;;5014669;28;20041;-67
2023/02/18 03:38:40;;;;;;;2.85;0.60;;;;;;;;;;5023607;28;20045;-67
2023/02/18 03:41:07;;;;;;;1.55;0.60;;;;;;;;;;5006756;28;20442;-66
2023/02/18 03:43:34;;;;;;;6.50;0.82;;;;;;;;;;5005604;28;20034;-63
2023/02/18 03:46:00;;;;;;;4.68;0.75;;;;;;;;;;5005111;28;20126;-66
2023/02/18 03:48:27;;;;;;;2.03;0.40;;;;;;;;;;5006294;28;20422;-66
2023/02/18 03:50:54;;;;;;;3.92;0.70;;;;;;;;;;5005830;28;20935;-66
2023/02/18 03:53:20;;;;;;;3.95;0.80;;;;;;;;;;5006055;28;20108;-66
2023/02/18 03:55:47;;;;;;;2.40;0.65;;;;;;;;;;5006806;28;20033;-66
2023/02/18 03:58:14;;;;;;;3.53;0.60;;;;;;;;;;5005571;28;20065;-66
2023/02/18 04:00:40;;;;;;;3.42;0.65;;;;;;;;;;5005683;28;20085;-65
2023/02/18 04:03:07;;;;;;;4.22;0.70;;;;;;;;;;5006480;28;20422;-65
2023/02/18 04:05:34;;;;;;;3.58;0.55;;;;;;;;;;5007144;28;20062;-65
2023/02/18 04:08:01;;;;;;;2.60;0.73;;;;;;;;;;5004920;28;20041;-65
2023/02/18 04:10:28;;;;;;;2.38;0.65;;;;;;;;;;5007004;28;20030;-65
2023/02/18 04:12:54;;;;;;;2.42;0.70;;;;;;;;;;5005222;28;20049;-66
2023/02/18 04:15:21;;;;;;;4.22;0.80;;;;;;;;;;5006104;28;20407;-65
2023/02/18 04:17:47;;;;;;;5.25;0.60;;;;;;;;;;5008038;28;20045;-65
2023/02/18 04:20:34;;;;;;;8.65;0.82;;;;;;;;;;5027515;28;20064;-65
2023/02/18 04:23:00;;;;;;;4.05;0.70;;;;;;;;;;5023943;28;20076;-65
2023/02/18 04:25:27;;;;;;;6.05;0.70;;;;;;;;;;5024227;28;20042;-63
2023/02/18 04:27:54;;;;;;;3.35;1.00;;;;;;;;;;5007299;28;20045;-65
2023/02/18 04:30:21;;;;;;;4.18;0.68;;;;;;;;;;5023393;28;20084;-66
2023/02/18 04:32:47;;;;;;;1.55;0.50;;;;;;;;;;5022217;28;20132;-65
2023/02/18 04:35:14;;;;;;;2.13;0.57;;;;;;;;;;5023986;28;21023;-64
2023/02/18 04:37:41;;;;;;;3.08;0.60;;;;;;;;;;5024025;28;20154;-65
2023/02/18 04:40:08;;;;;;;2.35;0.57;;;;;;;;;;5022690;28;20175;-67
2023/02/18 04:42:35;;;;;;;2.35;0.73;;;;;;;;;;5024491;28;20042;-67
2023/02/18 04:45:01;;;;;;;2.42;0.63;;;;;;;;;;5024396;28;20033;-66
2023/02/18 04:47:28;;;;;;;2.05;0.50;;;;;;;;;;5023292;28;20065;-67
2023/02/18 04:49:55;;;;;;;1.38;0.40;;;;;;;;;;5023739;28;20301;-66
2023/02/18 04:52:22;;;;;;;2.42;0.68;;;;;;;;;;5030096;28;20041;-67
2023/02/18 04:54:48;;;;;;;2.22;0.60;;;;;;;;;;5005308;28;20483;-66
2023/02/18 04:57:15;;;;;;;1.92;0.45;;;;;;;;;;5005741;28;20040;-67
2023/02/18 04:59:43;;;;;;;4.07;0.73;;;;;;;;;;5006225;28;20072;-67
2023/02/18 05:02:09;;;;;;;1.60;0.47;;;;;;;;;;5004433;28;20057;-65
2023/02/18 05:04:36;;;;;;;2.45;0.70;;;;;;;;;;5005809;28;20045;-65
2023/02/18 05:07:03;;;;;;;1.27;0.50;;;;;;;;;;5004960;28;20128;-66
2023/02/18 05:09:29;;;;;;;4.40;0.55;;;;;;;;;;5004394;28;20517;-65
2023/02/18 05:11:56;;;;;;;2.42;0.60;;;;;;;;;;5004069;28;20045;-66
2023/02/18 05:14:23;;;;;;;1.60;0.57;;;;;;;;;;5002835;28;20046;-66
2023/02/18 05:16:49;;;;;;;1.35;0.47;;;;;;;;;;5006903;28;20041;-66
2023/02/18 05:19:16;;;;;;;1.25;0.50;;;;;;;;;;5006004;28;20037;-66
2023/02/18 05:21:44;;;;;;;2.10;0.43;;;;;;;;;;5005659;28;20026;-64
2023/02/18 05:24:12;;;;;;;1.95;0.60;;;;;;;;;;5007251;28;20116;-64
2023/02/18 05:26:39;;;;;;;4.72;0.70;;;;;;;;;;5008451;28;20049;-65
2023/02/18 05:29:05;;;;;;;4.15;0.75;;;;;;;;;;5009169;28;20194;-65
2023/02/18 05:31:32;;;;;;;1.55;0.57;;;;;;;;;;5008656;28;20168;-62
2023/02/18 05:34:00;;;;;;;3.70;0.60;;;;;;;;;;5008389;28;20068;-64
2023/02/18 05:36:27;;;;;;;2.03;0.57;;;;;;;;;;5008043;28;20037;-65
2023/02/18 05:38:53;;;;;;;2.35;0.70;;;;;;;;;;5008441;28;20487;-66
2023/02/18 05:41:20;;;;;;;1.83;0.57;;;;;;;;;;5007844;28;20045;-64
2023/02/18 05:46:47;;;;;;;2.33;0.50;;;;;;;;;;4975899;28;20152;-65
2023/02/18 05:49:14;;;;;;;2.55;0.50;;;;;;;;;;5022576;28;20176;-68
2023/02/18 05:51:40;;;;;;;2.70;0.75;;;;;;;;;;5011570;28;20041;-64
2023/02/18 05:54:07;;;;;;;6.63;1.02;;;;;;;;;;5009386;28;20454;-65
2023/02/18 05:56:34;;;;;;;0.88;0.43;;;;;;;;;;5008656;28;20394;-65
2023/02/18 05:59:00;;;;;;;2.47;0.70;;;;;;;;;;5010009;28;20495;-64
2023/02/18 06:01:27;;;;;;;2.90;0.70;;;;;;;;;;5012354;28;20030;-64
2023/02/18 06:03:53;;;;;;;1.38;0.55;;;;;;;;;;5017354;28;20080;-64
2023/02/18 06:06:20;;;;;;;1.67;0.55;;;;;;;;;;5006972;28;21149;-66
2023/02/18 06:08:47;;;;;;;3.17;0.50;;;;;;;;;;5008561;28;20055;-65
2023/02/18 06:11:13;;;;;;;2.08;0.60;;;;;;;;;;5007900;28;20401;-64
2023/02/18 06:13:40;;;;;;;2.45;0.60;;;;;;;;;;5007177;28;20087;-64
2023/02/18 06:16:07;;;;;;;3.20;0.50;;;;;;;;;;5008629;28;20045;-65
2023/02/18 06:18:33;;;;;;;2.05;0.45;;;;;;;;;;5006998;28;20589;-64
2023/02/18 06:21:00;;;;;;;1.60;0.50;;;;;;;;;;5008219;28;20037;-65
2023/02/18 06:23:26;;;;;;;2.47;0.70;;;;;;;;;;5006516;28;20052;-65
2023/02/18 06:25:53;;;;;;;2.28;0.55;;;;;;;;;;5007721;28;20033;-66
2023/02/18 06:28:20;;;;;;;2.28;0.60;;;;;;;;;;5007473;28;20044;-66
2023/02/18 06:30:46;;;;;;;1.35;0.50;;;;;;;;;;5008788;28;20042;-64
2023/02/18 06:33:13;;;;;;;2.38;0.68;;;;;;;;;;5008498;28;20041;-65
2023/02/18 06:35:40;;;;;;;1.75;0.60;;;;;;;;;;5006983;28;20049;-64
2023/02/18 06:38:07;;;;;;;3.03;0.60;;;;;;;;;;5006906;28;20438;-65
2023/02/18 06:40:34;;;;;;;2.95;0.60;;;;;;;;;;5005939;28;20288;-67
2023/02/18 06:43:00;;;;;;;6.38;0.52;;;;;;;;;;5006469;28;20580;-66
2023/02/18 06:45:27;;;;;;;3.20;0.77;;;;;;;;;;4991409;28;20045;-65
2023/02/18 06:47:53;;;;;;;3.83;0.70;;;;;;;;;;5005959;28;20037;-66
2023/02/18 06:50:20;;;;;;;1.98;0.70;;;;;;;;;;5013074;28;20037;-67
2023/02/18 06:52:47;;;;;;;1.27;0.52;;;;;;;;;;5007953;28;20087;-66
2023/02/18 06:55:13;;;;;;;2.22;0.60;;;;;;;;;;4989730;28;20101;-65
2023/02/18 06:57:40;;;;;;;4.82;0.40;;;;;;;;;;5006928;28;20068;-66
2023/02/18 07:00:07;;;;;;;3.72;0.80;;;;;;;;;;5007047;28;20038;-65
2023/02/18 07:02:33;;;;;;;3.60;0.80;;;;;;;;;;5007004;28;20041;-66
2023/02/18 07:05:00;;;;;;;3.13;0.90;;;;;;;;;;5007515;28;20045;-66
2023/02/18 07:07:27;;;;;;;4.10;0.80;;;;;;;;;;5003754;28;20094;-66
2023/02/18 07:09:53;;;;;;;4.90;0.82;;;;;;;;;;5008459;28;20044;-67
2023/02/18 07:12:20;;;;;;;3.38;0.80;;;;;;;;;;5004327;28;20423;-66
2023/02/18 07:14:47;;;;;;;2.53;0.65;;;;;;;;;;5005688;28;20073;-66
2023/02/18 07:17:13;;;;;;;1.05;0.45;;;;;;;;;;5025248;28;20151;-66
2023/02/18 07:19:40;;;;;;;2.78;0.80;;;;;;;;;;5014277;28;20128;-65
2023/02/18 07:22:07;;;;;;;2.28;0.60;;;;;;;;;;5015538;28;20168;-66
2023/02/18 07:24:33;;;;;;;2.88;0.70;;;;;;;;;;5021700;28;20377;-66
2023/02/18 07:27:00;;;;;;;3.83;1.05;;;;;;;;;;5024783;28;20052;-66
2023/02/18 07:29:27;;;;;;;3.22;0.80;;;;;;;;;;5009946;28;20065;-65
2023/02/18 07:31:53;;;;;;;2.97;0.70;;;;;;;;;;5025754;28;20040;-66
2023/02/18 07:34:20;;;;;;;2.65;0.90;;;;;;;;;;5024731;28;20053;-67
2023/02/18 07:36:47;;;;;;;2.75;0.70;;;;;;;;;;5006779;28;20045;-67
2023/02/18 07:39:14;;;;;;;2.72;0.70;;;;;;;;;;5009949;28;20591;-67
2023/02/18 07:41:40;;;;;;;3.35;0.80;;;;;;;;;;5025849;28;20609;-66
2023/02/18 07:44:07;;;;;;;3.95;0.57;;;;;;;;;;5025479;28;20446;-66
2023/02/18 07:46:34;;;;;;;2.97;0.73;;;;;;;;;;5022328;28;20402;-66
2023/02/18 07:49:00;;;;;;;4.18;0.77;;;;;;;;;;5025041;28;20081;-66
2023/02/18 07:51:27;;;;;;;1.15;0.40;;;;;;;;;;5025154;28;20316;-66
2023/02/18 07:53:53;;;;;;;4.15;0.73;;;;;;;;;;5024924;28;20139;-65
2023/02/18 07:56:20;;;;;;;3.60;0.85;;;;;;;;;;5024739;28;20434;-65
2023/02/18 07:58:47;;;;;;;2.42;0.60;;;;;;;;;;5026816;28;20041;-66
2023/02/18 08:01:15;;;;;;;2.13;0.73;;;;;;;;;;5026414;28;20094;-66
2023/02/18 08:03:41;;;;;;;4.80;0.80;;;;;;;;;;5024522;28;20052;-67
2023/02/18 08:06:08;;;;;;;2.78;0.85;;;;;;;;;;5006253;28;20029;-68
2023/02/18 08:08:35;;;;;;;3.05;0.80;;;;;;;;;;5025783;28;20225;-65
2023/02/18 08:11:03;;;;;;;4.55;0.90;;;;;;;;;;5024437;28;20029;-66
2023/02/18 08:13:30;;;;;;;10.05;0.98;;;;;;;;;;5024822;28;20093;-66
2023/02/18 08:15:57;;;;;;;5.47;0.80;;;;;;;;;;5024962;28;20052;-66
2023/02/18 08:18:24;;;;;;;3.13;0.90;;;;;;;;;;5007043;28;20090;-66
2023/02/18 08:20:51;;;;;;;2.63;0.70;;;;;;;;;;5025770;28;20160;-65
2023/02/18 08:23:19;;;;;;;1.58;0.60;;;;;;;;;;5025869;28;20032;-65
2023/02/18 08:25:46;;;;;;;3.60;0.88;;;;;;;;;;5025424;28;20034;-65
2023/02/18 08:28:13;;;;;;;1.48;0.52;;;;;;;;;;5026081;28;20045;-66
2023/02/18 08:30:44;;;;;;;3.42;0.65;;;;;;;;;;5025768;28;20041;-68
2023/02/18 08:33:11;;;;;;;0.85;0.40;;;;;;;;;;5024698;28;20862;-65
2023/02/18 08:35:38;;;;;;;2.13;0.60;;;;;;;;;;5009013;28;20037;-65
2023/02/18 08:38:05;;;;;;;1.08;0.40;;;;;;;;;;5024774;28;20461;-66
2023/02/18 08:40:32;;;;;;;1.85;0.50;;;;;;;;;;5025675;28;20146;-67
2023/02/18 08:42:58;;;;;;;1.90;0.55;;;;;;;;;;5007315;28;20049;-66
2023/02/18 08:45:25;;;;;;;1.38;0.52;;;;;;;;;;5022756;28;20076;-65
2023/02/18 08:47:51;;;;;;;4.40;0.63;;;;;;;;;;5027046;28;20125;-67
2023/02/18 08:50:19;;;;;;;4.38;0.80;;;;;;;;;;5025039;28;20033;-67
2023/02/18 08:52:46;;;;;;;1.90;0.50;;;;;;;;;;5024300;28;20561;-66
2023/02/18 08:55:13;;;;;;;2.85;1.08;;;;;;;;;;5025650;28;21935;-65
2023/02/18 08:57:40;;;;;;;3.55;1.10;;;;;;;;;;5024468;28;20068;-67
2023/02/18 09:00:07;;;;;;;5.88;1.33;;;;;;;;;;5012301;28;20037;-68
2023/02/18 09:02:33;;;;;;;2.53;0.75;;;;;;;;;;5010123;28;20076;-67
2023/02/18 09:05:00;;;;;;;2.25;0.70;;;;;;;;;;5019582;28;20043;-66
2023/02/18 09:07:26;;;;;;;2.90;0.77;;;;;;;;;;5010348;28;20029;-66
2023/02/18 09:09:53;;;;;;;2.55;0.63;;;;;;;;;;5030325;28;20045;-66
2023/02/18 09:12:20;;;;;;;1.77;0.70;;;;;;;;;;5029512;28;20740;-66
2023/02/18 09:14:47;;;;;;;2.10;0.60;;;;;;;;;;5006333;28;20095;-65
2023/02/18 09:17:14;;;;;;;1.20;0.50;;;;;;;;;;5030885;28;20797;-66
2023/02/18 09:19:40;;;;;;;1.40;0.60;;;;;;;;;;5031182;28;20099;-65
2023/02/18 09:22:07;;;;;;;2.20;0.60;;;;;;;;;;5031938;28;20056;-66
2023/02/18 09:24:37;;;;;;;1.50;0.50;;;;;;;;;;5033224;28;20477;-66
2023/02/18 09:27:05;;;;;;;2.15;0.50;;;;;;;;;;5033206;28;20045;-65
2023/02/18 09:29:31;;;;;;;1.05;0.30;;;;;;;;;;5044241;28;20115;-66
2023/02/18 09:32:01;;;;;;;4.32;0.70;;;;;;;;;;5046599;28;20058;-66
2023/02/18 09:34:28;;;;;;;2.95;0.60;;;;;;;;;;5048899;28;20048;-66
2023/02/18 09:36:55;;;;;;;1.70;0.40;;;;;;;;;;5044510;28;20045;-66
2023/02/18 09:39:21;;;;;;;1.13;0.40;;;;;;;;;;5040248;28;20045;-66
2023/02/18 09:41:50;;;;;;;1.58;0.50;;;;;;;;;;5031388;28;20055;-66
2023/02/18 09:44:19;;;;;;;1.80;0.60;;;;;;;;;;5029509;28;20041;-66
2023/02/18 09:46:55;;;;;;;2.03;0.60;;;;;;;;;;5026938;28;20041;-66
2023/02/18 09:49:25;;;;;;;1.50;0.50;;;;;;;;;;5028933;28;20076;-66
2023/02/18 09:51:52;;;;;;;1.33;0.40;;;;;;;;;;5030085;28;20830;-66
2023/02/18 09:54:20;;;;;;;1.67;0.55;;;;;;;;;;5029067;28;22240;-66
2023/02/18 09:56:47;;;;;;;1.88;0.40;;;;;;;;;;5028112;28;20042;-66
2023/02/18 09:59:22;;;;;;;3.97;0.60;;;;;;;;;;5030161;28;20064;-66
2023/02/18 10:01:50;;;;;;;1.15;0.40;;;;;;;;;;5010599;28;20044;-66
2023/02/18 10:04:22;;;;;;;1.05;0.40;;;;;;;;;;5012087;28;20092;-66
2023/02/18 10:06:51;;;;;;;0.73;0.40;;;;;;;;;;5022292;28;20678;-66
2023/02/18 10:09:34;;;;;;;1.33;0.40;;;;;;;;;;5014032;28;20156;-66
2023/02/18 10:12:08;;;;;;;1.08;0.40;;;;;;;;;;5023256;28;20552;-66
2023/02/18 10:14:34;;;;;;;0.65;0.40;;;;;;;;;;5009347;28;20084;-67
2023/02/18 10:17:01;;;;;;;4.78;0.60;;;;;;;;;;5008308;28;20033;-66
2023/02/18 10:19:31;;;;;;;1.10;0.32;;;;;;;;;;5009810;28;20041;-66
2023/02/18 10:21:58;;;;;;;1.67;0.50;;;;;;;;;;5008626;28;20065;-66
2023/02/18 10:24:42;;;;;;;0.90;0.35;;;;;;;;;;5008676;28;20356;-66
2023/02/18 10:27:08;;;;;;;;;;;;;;;;;;5009992;28;20045;-67
2023/02/18 10:29:35;;;;;;;2.78;0.40;;;;;;;;;;5008856;28;20656;-66
2023/02/18 10:32:02;;;;;;;1.40;0.50;;;;;;;;;;5010744;28;20056;-66
2023/02/18 10:34:31;;;;;;;1.17;0.40;;;;;;;;;;4995121;28;20045;-66
2023/02/18 10:37:07;;;;;;;2.85;0.52;;;;;;;;;;5010267;28;20573;-66
2023/02/18 10:39:33;;;;;;;1.05;0.38;;;;;;;;;;5011281;28;20041;-67
2023/02/18 10:42:16;;;;;;;0.88;0.30;;;;;;;;;;5010714;28;20793;-66
2023/02/18 10:44:59;;;;;;;0.93;0.40;;;;;;;;;;4995327;28;20073;-66
2023/02/18 10:47:40;;;;;;;0.68;0.30;;;;;;;;;;5007669;28;20111;-66
2023/02/18 10:50:10;;;;;;;0.95;0.30;;;;;;;;;;4984235;28;20049;-66
2023/02/18 10:52:43;;;;;;;1.13;0.40;;;;;;;;;;4988032;28;20590;-67
2023/02/18 10:55:09;;;;;;;;;;;;;;;;;;4988697;28;20057;-66
2023/02/18 10:57:45;;;;;;;1.80;0.50;;;;;;;;;;4988701;28;19913;-66
2023/02/18 11:00:25;;;;;;;0.85;0.40;;;;;;;;;;4997432;28;20065;-66
2023/02/18 11:03:10;;;;;;;5.18;0.52;;;;;;;;;;4984493;28;20498;-66
2023/02/18 11:05:38;;;;;;;1.35;0.40;;;;;;;;;;4977872;28;20942;-65
2023/02/18 11:08:08;;;;;;;1.02;0.40;;;;;;;;;;4977840;28;20503;-67
2023/02/18 11:10:38;;;;;;;0.82;0.40;;;;;;;;;;4969563;28;20050;-65
2023/02/18 11:13:08;;;;;;;1.13;0.50;;;;;;;;;;4968682;28;20187;-65
2023/02/18 11:15:35;;;;;;;1.38;0.50;;;;;;;;;;4966957;28;20082;-66
2023/02/18 11:18:13;;;;;;;1.05;0.40;;;;;;;;;;4967589;28;20035;-65
2023/02/18 11:20:40;;;;;;;1.88;0.60;;;;;;;;;;4969035;28;20038;-65
2023/02/18 11:23:07;;;;;;;1.73;0.47;;;;;;;;;;4986944;28;20095;-64
2023/02/18 11:25:33;;;;;;;1.42;0.40;;;;;;;;;;4986777;28;20129;-64
2023/02/18 11:28:04;;;;;;;0.88;0.35;;;;;;;;;;4985171;28;20046;-65
2023/02/18 11:30:32;;;;;;;1.52;0.50;;;;;;;;;;4986755;28;20085;-65
2023/02/18 11:33:21;;;;;;;2.40;0.60;;;;;;;;;;4991329;28;20042;-63
2023/02/18 11:35:52;;;;;;;1.73;0.40;;;;;;;;;;4984192;28;20053;-64
2023/02/18 11:38:28;;;;;;;4.72;0.50;;;;;;;;;;4985668;28;20037;-66
2023/02/18 11:41:03;;;;;;;2.65;0.40;;;;;;;;;;4985955;28;20069;-66
2023/02/18 11:43:31;;;;;;;1.85;0.40;;;;;;;;;;4987013;28;20080;-66
2023/02/18 11:46:14;;;;;;;0.82;0.40;;;;;;;;;;4987186;28;20046;-65
2023/02/18 11:48:41;;;;;;;2.45;0.50;;;;;;;;;;4995378;28;20162;-66
2023/02/18 11:51:26;;;;;;;1.58;0.50;;;;;;;;;;5006132;28;20068;-66
2023/02/18 11:54:10;;;;;;;0.80;0.40;;;;;;;;;;5007001;28;20065;-65
2023/02/18 11:56:38;;;;;;;1.20;0.40;;;;;;;;;;5004925;28;20037;-65
2023/02/18 11:59:05;;;;;;;3.50;0.60;;;;;;;;;;5006238;28;20149;-65
2023/02/18 12:01:50;;;;;;;1.42;0.43;;;;;;;;;;5013138;28;20041;-64
2023/02/18 12:04:18;;;;;;;4.97;0.60;;;;;;;;;;5013947;28;20055;-65
2023/02/18 12:06:54;;;;;;;0.73;0.40;;;;;;;;;;5006157;28;20044;-66
2023/02/18 12:09:20;;;;;;;1.35;0.47;;;;;;;;;;4989624;28;20044;-66
2023/02/18 12:11:49;;;;;;;1.75;0.50;;;;;;;;;;5006194;28;20115;-66
2023/02/18 12:14:20;;;;;;;1.48;0.43;;;;;;;;;;5005566;28;20108;-66
2023/02/18 12:17:13;;;;;;;1.27;0.50;;;;;;;;;;5017937;28;20041;-66
2023/02/18 12:19:42;;;;;;;4.22;0.50;;;;;;;;;;5007730;28;20133;-66
2023/02/18 12:22:09;;;;;;;1.50;0.55;;;;;;;;;;4991253;28;20060;-67
2023/02/18 12:24:41;;;;;;;1.00;0.40;;;;;;;;;;5006401;28;20033;-66
2023/02/18 12:27:23;;;;;;;1.13;0.40;;;;;;;;;;5008907;28;20042;-66
2023/02/18 12:29:58;;;;;;;1.63;0.55;;;;;;;;;;5026832;28;20505;-67
2023/02/18 12:32:44;;;;;;;;;;;;;;;;;;4989959;28;21600;-66
2023/02/18 12:35:10;;;;;;;2.40;0.68;;;;;;;;;;5006447;28;20462;-66
2023/02/18 12:37:52;;;;;;;4.85;0.60;;;;;;;;;;4987217;28;20053;-67
2023/02/18 12:40:25;;;;;;;1.27;0.40;;;;;;;;;;4990060;28;20042;-66
2023/02/18 12:42:58;;;;;;;1.25;0.40;;;;;;;;;;4989401;28;21027;-66
2023/02/18 12:45:25;;;;;;;;;;;;;;;;;;4990555;28;20038;-66
2023/02/18 12:48:08;;;;;;;0.55;0.30;;;;;;;;;;4989999;28;20619;-65
2023/02/18 12:50:34;;;;;;;1.70;0.55;;;;;;;;;;4992533;28;20049;-65
2023/02/18 12:53:13;;;;;;;1.67;0.68;;;;;;;;;;4990193;28;20468;-66
2023/02/18 12:55:52;;;;;;;4.97;0.75;;;;;;;;;;4988847;28;20058;-67
2023/02/18 12:58:29;;;;;;;2.60;0.60;;;;;;;;;;4989489;28;20150;-66
2023/02/18 13:00:55;;;;;;;1.73;0.40;;;;;;;;;;4989607;28;20046;-66
2023/02/18 13:03:40;;;;;;;1.23;0.50;;;;;;;;;;4994820;28;20038;-67
2023/02/18 13:06:10;;;;;;;2.20;0.55;;;;;;;;;;5011254;28;20095;-66
2023/02/18 13:08:37;;;;;;;2.22;0.70;;;;;;;;;;5003583;28;20558;-66
2023/02/18 13:11:09;;;;;;;2.03;0.60;;;;;;;;;;5005361;28;20231;-65
2023/02/18 13:13:39;;;;;;;6.60;0.77;;;;;;;;;;5005549;28;20509;-65
2023/02/18 13:16:09;;;;;;;2.72;0.80;;;;;;;;;;5005709;28;20057;-65
2023/02/18 13:18:44;;;;;;;2.15;0.60;;;;;;;;;;5003903;28;20037;-64
2023/02/18 13:21:13;;;;;;;1.50;0.50;;;;;;;;;;5005554;28;20034;-67
2023/02/18 13:23:52;;;;;;;2.22;0.60;;;;;;;;;;5004736;28;20042;-67
2023/02/18 13:26:21;;;;;;;1.38;0.50;;;;;;;;;;5003790;28;20152;-68
2023/02/18 13:28:47;;;;;;;5.25;0.70;;;;;;;;;;5007166;28;20041;-67
2023/02/18 13:31:14;;;;;;;1.95;0.50;;;;;;;;;;5005020;28;20072;-67
2023/02/18 13:33:47;;;;;;;3.25;0.65;;;;;;;;;;4979534;28;20046;-66
2023/02/18 13:36:22;;;;;;;0.70;0.40;;;;;;;;;;5016242;28;20034;-67
2023/02/18 13:38:58;;;;;;;1.75;0.50;;;;;;;;;;5016643;28;20038;-66
2023/02/18 13:41:26;;;;;;;1.17;0.50;;;;;;;;;;5006552;28;20048;-66
2023/02/18 13:43:53;;;;;;;1.83;0.50;;;;;;;;;;5005708;28;20107;-66
2023/02/18 13:46:20;;;;;;;1.73;0.60;;;;;;;;;;5005614;28;20723;-67
2023/02/18 13:49:11;;;;;;;1.00;0.45;;;;;;;;;;5007876;28;20048;-66
2023/02/18 13:51:51;;;;;;;3.55;0.60;;;;;;;;;;5010104;28;22788;-67
2023/02/18 13:54:24;;;;;;;0.70;0.30;;;;;;;;;;5019238;28;20053;-66
2023/02/18 13:56:57;;;;;;;0.63;0.30;;;;;;;;;;5015022;28;20099;-66
2023/02/18 13:59:30;;;;;;;1.98;0.57;;;;;;;;;;5007728;28;20500;-65
2023/02/18 14:02:07;;;;;;;0.97;0.40;;;;;;;;;;5009025;28;20042;-65
2023/02/18 14:04:34;;;;;;;5.43;0.60;;;;;;;;;;5007746;28;20121;-64
2023/02/18 14:07:19;;;;;;;9.00;1.98;;;;;;;;;;4992531;28;20049;-66
2023/02/18 14:09:46;;;;;;;3.03;0.90;;;;;;;;;;4989815;28;20060;-66
2023/02/18 14:12:31;;;;;;;2.88;0.85;;;;;;;;;;5008318;28;20040;-65
2023/02/18 14:14:58;;;;;;;1.67;0.55;;;;;;;;;;5018053;28;20072;-66
2023/02/18 14:17:32;;;;;;;2.08;0.70;;;;;;;;;;5010802;28;20045;-65
2023/02/18 14:20:05;;;;;;;2.05;0.60;;;;;;;;;;5008258;28;20069;-65
2023/02/18 14:22:33;;;;;;;2.92;0.70;;;;;;;;;;5008876;28;20454;-65
2023/02/18 14:25:08;;;;;;;4.57;1.42;;;;;;;;;;4996180;28;22343;-65
2023/02/18 14:27:36;;;;;;;3.28;1.10;;;;;;;;;;5009475;28;20147;-64
2023/02/18 14:30:04;;;;;;;6.28;1.58;;;;;;;;;;5008155;28;20046;-64
2023/02/18 14:32:31;;;;;;;4.70;1.08;;;;;;;;;;5006578;28;20038;-65
2023/02/18 14:35:00;;;;;;;1.35;0.52;;;;;;;;;;5007515;28;20054;-66
2023/02/18 14:37:27;;;;;;;2.03;0.60;;;;;;;;;;5014553;28;20614;-66
2023/02/18 14:39:56;;;;;;;2.58;0.70;;;;;;;;;;5020140;28;20034;-66
2023/02/18 14:42:26;;;;;;;2.65;0.65;;;;;;;;;;5008676;28;20062;-65
2023/02/18 14:44:55;;;;;;;2.83;0.70;;;;;;;;;;5010862;28;20979;-66
2023/02/18 14:47:28;;;;;;;5.82;1.00;;;;;;;;;;5010737;28;20532;-64
2023/02/18 14:49:58;;;;;;;5.20;0.70;;;;;;;;;;5010043;28;20058;-65
2023/02/18 14:52:43;;;;;;;3.80;1.02;;;;;;;;;;5009479;28;20129;-65
2023/02/18 14:55:22;;;;;;;4.93;0.90;;;;;;;;;;5015213;28;20054;-61
2023/02/18 14:57:54;;;;;;;6.47;1.20;;;;;;;;;;5016748;28;20044;-66
2023/02/18 15:00:41;;;;;;;2.35;0.90;;;;;;;;;;5005938;28;20129;-67